createdAt,value
2022-10-12T00:00:34.364Z,6.5
2022-10-12T00:01:38.664Z,6.5
2022-10-12T00:02:42.952Z,6.5
2022-10-12T00:03:47.325Z,6.5
2022-10-12T00:04:51.955Z,6.5
2022-10-12T00:05:56.840Z,6.6
2022-10-12T00:07:06.216Z,6.6
2022-10-12T00:08:10.541Z,6.7
2022-10-12T00:09:14.728Z,6.6
2022-10-12T00:10:18.928Z,6.6
2022-10-12T00:11:23.959Z,6.6
2022-10-12T00:12:29.484Z,6.6
2022-10-12T00:13:33.771Z,6.6
2022-10-12T00:14:38.079Z,6.6
2022-10-12T00:15:42.464Z,6.6
2022-10-12T00:16:47.699Z,6.6
2022-10-12T00:17:52.744Z,6.6
2022-10-12T00:18:57.124Z,6.6
2022-10-12T00:20:01.716Z,6.6
2022-10-12T00:21:06.740Z,6.7
2022-10-12T00:22:13.953Z,6.6
2022-10-12T00:23:18.500Z,6.6
2022-10-12T00:24:22.956Z,6.6
2022-10-12T00:25:28.395Z,6.7
2022-10-12T00:26:33.109Z,6.7
2022-10-12T00:28:40.986Z,6.7
2022-10-12T00:29:45.105Z,6.8
2022-10-12T00:30:49.331Z,6.8
2022-10-12T00:31:53.507Z,6.8
2022-10-12T00:32:58.147Z,6.7
2022-10-12T00:34:02.782Z,6.7
2022-10-12T00:35:07.024Z,6.7
2022-10-12T00:36:11.749Z,6.7
2022-10-12T00:37:21.131Z,6.7
2022-10-12T00:38:25.686Z,6.5
2022-10-12T00:39:30.015Z,6.5
2022-10-12T00:40:34.612Z,6.5
2022-10-12T00:41:39.353Z,6.5
2022-10-12T00:42:43.551Z,6.5
2022-10-12T00:43:48.427Z,6.5
2022-10-12T00:44:52.651Z,6.4
2022-10-12T00:45:57.050Z,6.4
2022-10-12T00:47:01.632Z,6.4
2022-10-12T00:48:08.827Z,6.4
2022-10-12T00:49:13.242Z,6.4
2022-10-12T00:50:20.332Z,6.5
2022-10-12T00:51:24.659Z,6.5
2022-10-12T00:52:28.958Z,6.5
2022-10-12T00:53:33.390Z,6.5
2022-10-12T00:54:42.665Z,6.4
2022-10-12T00:55:47.251Z,6.4
2022-10-12T00:56:52.864Z,6.4
2022-10-12T00:57:57.235Z,6.4
2022-10-12T00:59:01.537Z,6.2
2022-10-12T01:00:06.057Z,6.2
2022-10-12T01:01:10.813Z,6.2
2022-10-12T01:02:14.945Z,6.1
2022-10-12T01:03:19.090Z,6.1
2022-10-12T01:04:23.406Z,6.1
2022-10-12T01:05:27.752Z,6.1
2022-10-12T01:06:32.111Z,6.1
2022-10-12T01:07:36.774Z,6.1
2022-10-12T01:08:40.927Z,6.1
2022-10-12T01:09:45.162Z,6.1
2022-10-12T01:10:49.748Z,6.1
2022-10-12T01:11:54.166Z,6
2022-10-12T01:12:59.118Z,6
2022-10-12T01:14:03.659Z,5.9
2022-10-12T01:15:08.250Z,5.9
2022-10-12T01:16:12.726Z,5.9
2022-10-12T01:17:17.094Z,6
2022-10-12T01:18:31.694Z,5.9
2022-10-12T01:19:43.898Z,6
2022-10-12T01:20:56.194Z,6
2022-10-12T01:22:05.496Z,6
2022-10-12T01:23:12.791Z,6.1
2022-10-12T01:24:27.330Z,6.1
2022-10-12T01:25:34.842Z,6.2
2022-10-12T01:26:49.457Z,6.2
2022-10-12T01:28:04.121Z,6.2
2022-10-12T01:29:18.786Z,6.2
2022-10-12T01:30:32.106Z,6.2
2022-10-12T01:31:36.514Z,6.2
2022-10-12T01:32:48.818Z,6.2
2022-10-12T01:34:01.030Z,6.2
2022-10-12T01:35:11.136Z,6.2
2022-10-12T01:36:18.374Z,6.2
2022-10-12T01:37:32.783Z,6.3
2022-10-12T01:38:47.698Z,6.3
2022-10-12T01:39:58.427Z,6.2
2022-10-12T01:41:02.842Z,6.2
2022-10-12T01:42:15.283Z,6.2
2022-10-12T01:43:25.702Z,6.2
2022-10-12T01:44:38.032Z,6.2
2022-10-12T01:45:39.546Z,6.2
2022-10-12T01:46:44.448Z,6.1
2022-10-12T01:47:48.910Z,6.1
2022-10-12T01:48:53.912Z,6.1
2022-10-12T01:49:58.618Z,6
2022-10-12T01:51:02.901Z,6
2022-10-12T01:52:07.263Z,5.9
2022-10-12T01:53:16.762Z,5.9
2022-10-12T01:54:26.014Z,5.9
2022-10-12T01:55:38.435Z,6
2022-10-12T01:56:47.834Z,5.9
2022-10-12T01:57:57.308Z,5.9
2022-10-12T01:59:06.754Z,5.9
2022-10-12T02:00:21.250Z,5.9
2022-10-12T02:01:25.717Z,5.8
2022-10-12T02:02:32.850Z,5.8
2022-10-12T02:03:39.824Z,5.8
2022-10-12T02:04:49.286Z,5.7
2022-10-12T02:05:53.586Z,5.7
2022-10-12T02:07:03.022Z,5.7
2022-10-12T02:08:07.627Z,5.7
2022-10-12T02:09:22.316Z,5.6
2022-10-12T02:10:29.866Z,5.6
2022-10-12T02:11:34.357Z,5.7
2022-10-12T02:12:38.978Z,5.7
2022-10-12T02:13:43.933Z,5.7
2022-10-12T02:14:53.362Z,5.7
2022-10-12T02:15:58.050Z,5.6
2022-10-12T02:17:02.462Z,5.7
2022-10-12T02:18:06.698Z,5.7
2022-10-12T02:19:11.354Z,5.6
2022-10-12T02:20:15.654Z,5.6
2022-10-12T02:21:19.915Z,5.6
2022-10-12T02:22:29.310Z,5.6
2022-10-12T02:23:33.593Z,5.5
2022-10-12T02:24:38.143Z,5.6
2022-10-12T02:25:42.718Z,5.6
2022-10-12T02:26:47.694Z,5.5
2022-10-12T02:27:52.419Z,5.5
2022-10-12T02:28:56.726Z,5.6
2022-10-12T02:30:00.970Z,5.6
2022-10-12T02:31:05.914Z,5.6
2022-10-12T02:32:18.336Z,5.6
2022-10-12T02:33:25.282Z,5.5
2022-10-12T02:34:29.518Z,5.5
2022-10-12T02:36:50.462Z,5.5
2022-10-12T02:38:02.826Z,5.5
2022-10-12T02:39:12.854Z,5.4
2022-10-12T02:41:35.959Z,5.3
2022-10-12T02:43:08.617Z,5.4
2022-10-12T02:43:55.838Z,5.4
2022-10-12T02:45:03.084Z,5.4
2022-10-12T02:46:07.735Z,5.4
2022-10-12T02:47:12.059Z,5.4
2022-10-12T02:48:16.979Z,5.4
2022-10-12T02:49:21.298Z,5.4
2022-10-12T02:50:26.014Z,5.4
2022-10-12T02:51:30.358Z,5.4
2022-10-12T02:52:34.954Z,5.4
2022-10-12T02:53:39.302Z,5.4
2022-10-12T02:54:43.847Z,5.4
2022-10-12T02:55:48.878Z,5.4
2022-10-12T02:56:53.393Z,5.4
2022-10-12T02:57:57.984Z,5.4
2022-10-12T02:59:02.614Z,5.4
2022-10-12T03:00:07.262Z,5.4
2022-10-12T03:01:12.544Z,5.4
2022-10-12T03:02:19.666Z,5.4
2022-10-12T03:03:24.150Z,5.4
2022-10-12T03:04:28.898Z,5.4
2022-10-12T03:05:33.386Z,5.4
2022-10-12T03:06:37.558Z,5.4
2022-10-12T03:07:41.964Z,5.4
2022-10-12T03:08:46.274Z,5.4
2022-10-12T03:09:50.590Z,5.3
2022-10-12T03:10:54.994Z,5.3
2022-10-12T03:12:02.706Z,5.3
2022-10-12T03:14:10.795Z,5.2
2022-10-12T03:16:18.586Z,5.2
2022-10-12T03:17:23.234Z,5.2
2022-10-12T03:18:27.938Z,5.1
2022-10-12T03:19:32.401Z,5.1
2022-10-12T03:20:36.817Z,5.1
2022-10-12T03:21:41.302Z,5.1
2022-10-12T03:22:46.422Z,5.1
2022-10-12T03:23:51.845Z,5.1
2022-10-12T03:24:56.190Z,5.1
2022-10-12T03:26:00.583Z,5.2
2022-10-12T03:27:05.516Z,5.2
2022-10-12T03:28:09.879Z,5.2
2022-10-12T03:29:14.187Z,5.1
2022-10-12T03:30:18.903Z,5.1
2022-10-12T03:31:23.288Z,5.1
2022-10-12T03:32:27.711Z,5.1
2022-10-12T03:33:32.687Z,5.1
2022-10-12T03:34:36.968Z,5
2022-10-12T03:35:41.699Z,5.1
2022-10-12T03:36:46.291Z,5.1
2022-10-12T03:37:50.704Z,5.1
2022-10-12T03:38:55.160Z,5.1
2022-10-12T03:39:59.477Z,5.1
2022-10-12T03:41:06.670Z,5.1
2022-10-12T03:42:08.198Z,5.2
2022-10-12T03:43:12.468Z,5.2
2022-10-12T03:44:16.831Z,5.2
2022-10-12T03:45:21.859Z,5.2
2022-10-12T03:46:26.334Z,5.3
2022-10-12T03:47:30.819Z,5.3
2022-10-12T03:48:35.515Z,5.2
2022-10-12T03:49:39.875Z,5.2
2022-10-12T03:50:44.371Z,5.3
2022-10-12T03:51:49.087Z,5.2
2022-10-12T03:52:53.936Z,5.3
2022-10-12T03:53:58.539Z,5.2
2022-10-12T03:55:03.007Z,5.2
2022-10-12T03:56:07.511Z,5.2
2022-10-12T03:57:11.915Z,5.2
2022-10-12T03:58:16.948Z,5.2
2022-10-12T03:59:21.607Z,5.2
2022-10-12T04:00:26.135Z,5.2
2022-10-12T04:01:30.837Z,5.2
2022-10-12T04:02:35.187Z,5.2
2022-10-12T04:03:39.872Z,5.2
2022-10-12T04:04:44.247Z,5.2
2022-10-12T04:05:48.652Z,5.2
2022-10-12T04:06:53.141Z,5.2
2022-10-12T04:07:57.603Z,5.2
2022-10-12T04:09:02.351Z,5.2
2022-10-12T04:10:07.228Z,5.2
2022-10-12T04:11:11.504Z,5.2
2022-10-12T04:12:15.847Z,5.1
2022-10-12T04:13:20.120Z,5.1
2022-10-12T04:14:24.319Z,5.1
2022-10-12T04:15:29.891Z,5.1
2022-10-12T04:16:34.136Z,5.1
2022-10-12T04:17:38.693Z,5
2022-10-12T04:18:42.764Z,5
2022-10-12T04:19:48.451Z,5
2022-10-12T04:20:53.088Z,5
2022-10-12T04:21:57.536Z,5
2022-10-12T04:23:01.792Z,4.9
2022-10-12T04:24:06.087Z,4.9
2022-10-12T04:25:10.528Z,4.9
2022-10-12T04:26:14.851Z,4.9
2022-10-12T04:27:19.484Z,4.9
2022-10-12T04:28:24.330Z,5
2022-10-12T04:29:28.815Z,5
2022-10-12T04:30:33.383Z,5
2022-10-12T04:31:37.761Z,5
2022-10-12T04:32:42.107Z,5
2022-10-12T04:33:46.383Z,4.9
2022-10-12T04:34:50.776Z,4.9
2022-10-12T04:35:55.872Z,4.9
2022-10-12T04:37:01.780Z,4.9
2022-10-12T04:38:06.304Z,4.9
2022-10-12T04:39:10.599Z,4.9
2022-10-12T04:40:15.348Z,4.9
2022-10-12T04:41:19.892Z,4.9
2022-10-12T04:42:24.376Z,4.8
2022-10-12T04:43:29.151Z,4.9
2022-10-12T04:44:33.663Z,4.8
2022-10-12T04:45:38.452Z,4.8
2022-10-12T04:47:46.720Z,4.9
2022-10-12T04:48:51.374Z,4.9
2022-10-12T04:49:55.747Z,4.9
2022-10-12T04:51:00.231Z,4.9
2022-10-12T04:52:04.786Z,4.8
2022-10-12T04:53:09.195Z,4.8
2022-10-12T04:54:13.514Z,4.8
2022-10-12T04:55:17.810Z,4.8
2022-10-12T04:56:22.186Z,4.8
2022-10-12T04:57:26.833Z,4.8
2022-10-12T04:58:31.464Z,4.7
2022-10-12T04:59:35.696Z,4.6
2022-10-12T05:00:40.017Z,4.7
2022-10-12T05:01:44.488Z,4.7
2022-10-12T05:02:48.793Z,4.7
2022-10-12T05:03:53.281Z,4.8
2022-10-12T05:05:02.133Z,4.8
2022-10-12T05:06:06.721Z,4.8
2022-10-12T05:07:11.041Z,4.8
2022-10-12T05:08:15.446Z,4.8
2022-10-12T05:09:19.693Z,4.8
2022-10-12T05:10:24.033Z,4.8
2022-10-12T05:11:29.161Z,4.8
2022-10-12T05:12:33.721Z,4.8
2022-10-12T05:13:38.089Z,4.8
2022-10-12T05:14:42.361Z,4.8
2022-10-12T05:15:46.682Z,4.8
2022-10-12T05:16:51.297Z,4.8
2022-10-12T05:17:56.145Z,4.8
2022-10-12T05:19:00.446Z,4.8
2022-10-12T05:20:04.802Z,4.8
2022-10-12T05:21:09.577Z,4.8
2022-10-12T05:22:14.001Z,4.8
2022-10-12T05:23:20.722Z,4.7
2022-10-12T05:24:25.485Z,4.7
2022-10-12T05:25:30.859Z,4.7
2022-10-12T05:26:35.262Z,4.7
2022-10-12T05:27:39.939Z,4.7
2022-10-12T05:28:44.031Z,4.7
2022-10-12T05:29:48.685Z,4.8
2022-10-12T05:30:54.585Z,4.8
2022-10-12T05:31:58.866Z,4.8
2022-10-12T05:33:03.165Z,4.8
2022-10-12T05:34:07.562Z,4.8
2022-10-12T05:35:11.825Z,4.8
2022-10-12T05:36:16.217Z,4.8
2022-10-12T05:37:20.344Z,4.8
2022-10-12T05:38:24.958Z,4.8
2022-10-12T05:39:29.648Z,4.8
2022-10-12T05:40:34.070Z,4.8
2022-10-12T05:41:38.445Z,4.9
2022-10-12T05:42:42.754Z,4.9
2022-10-12T05:43:46.970Z,4.9
2022-10-12T05:44:51.326Z,5
2022-10-12T05:45:55.728Z,5
2022-10-12T05:47:00.250Z,5
2022-10-12T05:48:04.569Z,5
2022-10-12T05:49:09.596Z,5
2022-10-12T05:50:13.863Z,4.9
2022-10-12T05:51:18.135Z,4.9
2022-10-12T05:52:22.375Z,4.9
2022-10-12T05:53:26.915Z,4.9
2022-10-12T05:54:31.191Z,4.9
2022-10-12T05:55:35.755Z,4.9
2022-10-12T05:56:39.983Z,4.9
2022-10-12T05:57:48.456Z,4.9
2022-10-12T05:58:49.379Z,4.9
2022-10-12T05:59:54.292Z,5
2022-10-12T06:00:58.507Z,5
2022-10-12T06:02:08.673Z,5
2022-10-12T06:03:18.557Z,5
2022-10-12T06:04:20.390Z,5
2022-10-12T06:05:24.756Z,5.1
2022-10-12T06:06:29.067Z,5.1
2022-10-12T06:07:33.347Z,5.1
2022-10-12T06:08:37.535Z,5.1
2022-10-12T06:09:42.059Z,5.1
2022-10-12T06:10:46.345Z,5.1
2022-10-12T06:11:51.327Z,5.2
2022-10-12T06:12:56.736Z,5.2
2022-10-12T06:14:01.153Z,5.3
2022-10-12T06:15:05.402Z,5.3
2022-10-12T06:16:10.343Z,5.3
2022-10-12T06:17:14.742Z,5.4
2022-10-12T06:18:19.306Z,5.4
2022-10-12T06:19:23.573Z,5.5
2022-10-12T06:20:28.271Z,5.5
2022-10-12T06:21:34.134Z,5.5
2022-10-12T06:22:38.270Z,5.6
2022-10-12T06:23:42.433Z,5.6
2022-10-12T06:24:46.756Z,5.6
2022-10-12T06:25:51.028Z,5.7
2022-10-12T06:26:55.293Z,5.8
2022-10-12T06:27:59.723Z,5.8
2022-10-12T06:29:03.939Z,5.8
2022-10-12T06:30:11.931Z,5.8
2022-10-12T06:31:16.219Z,5.8
2022-10-12T06:32:24.438Z,5.8
2022-10-12T06:33:30.311Z,5.9
2022-10-12T06:34:34.707Z,5.9
2022-10-12T06:35:39.136Z,6
2022-10-12T06:36:43.582Z,6
2022-10-12T06:37:50.412Z,6
2022-10-12T06:38:52.502Z,6
2022-10-12T06:41:00.697Z,6.1
2022-10-12T06:42:05.059Z,6.1
2022-10-12T06:43:09.422Z,6.2
2022-10-12T06:44:13.681Z,5.8
2022-10-12T06:45:17.926Z,5.8
2022-10-12T06:46:22.377Z,5.9
2022-10-12T06:47:26.923Z,5.9
2022-10-12T06:48:31.175Z,5.9
2022-10-12T06:49:35.491Z,6
2022-10-12T06:50:41.134Z,6.1
2022-10-12T06:51:45.415Z,6.1
2022-10-12T06:52:50.371Z,6
2022-10-12T06:53:54.639Z,6.2
2022-10-12T06:54:59.013Z,6.2
2022-10-12T06:56:03.299Z,6
2022-10-12T06:57:07.730Z,6.1
2022-10-12T06:58:11.979Z,5.9
2022-10-12T06:59:16.619Z,5.8
2022-10-12T07:00:21.366Z,5.9
2022-10-12T07:01:25.990Z,6.1
2022-10-12T07:02:30.418Z,6.2
2022-10-12T07:03:34.751Z,6.2
2022-10-12T07:04:39.740Z,6.2
2022-10-12T07:05:44.006Z,6.3
2022-10-12T07:06:49.038Z,6.3
2022-10-12T07:07:53.374Z,6.3
2022-10-12T07:08:57.923Z,6.3
2022-10-12T07:10:02.288Z,6.3
2022-10-12T07:12:10.154Z,6.4
2022-10-12T07:13:14.322Z,6.4
2022-10-12T07:14:18.645Z,6.5
2022-10-12T07:15:22.783Z,6.5
2022-10-12T07:16:26.978Z,6.6
2022-10-12T07:17:31.310Z,6.6
2022-10-12T07:18:35.552Z,6.6
2022-10-12T07:19:39.708Z,6.6
2022-10-12T07:20:44.007Z,6.6
2022-10-12T07:21:48.266Z,6.6
2022-10-12T07:22:52.440Z,6.6
2022-10-12T07:23:56.712Z,6.6
2022-10-12T07:25:01.579Z,6.6
2022-10-12T07:26:06.031Z,6.6
2022-10-12T07:27:10.371Z,6.6
2022-10-12T07:28:14.661Z,6.6
2022-10-12T07:29:18.987Z,7.5
2022-10-12T07:30:23.288Z,7.5
2022-10-12T07:31:27.632Z,7.6
2022-10-12T07:32:32.255Z,7.8
2022-10-12T07:33:36.783Z,7.8
2022-10-12T07:34:41.352Z,8
2022-10-12T07:36:10.422Z,7.9
2022-10-12T07:36:59.353Z,8.2
2022-10-12T07:39:03.829Z,8.3
2022-10-12T07:40:08.148Z,8.4
2022-10-12T07:41:12.491Z,8.4
2022-10-12T07:42:19.223Z,8.4
2022-10-12T07:43:21.155Z,8.4
2022-10-12T07:44:25.665Z,8.5
2022-10-12T07:45:30.196Z,8.5
2022-10-12T07:46:34.673Z,8.5
2022-10-12T07:48:47.423Z,8.6
2022-10-12T07:49:48.094Z,8.5
2022-10-12T07:50:52.378Z,8.5
2022-10-12T07:51:56.825Z,8.6
2022-10-12T07:53:01.329Z,8.9
2022-10-12T07:54:05.494Z,8.8
2022-10-12T07:55:10.273Z,8.8
2022-10-12T07:56:14.756Z,8.8
2022-10-12T07:57:19.331Z,9
2022-10-12T07:58:23.894Z,9.2
2022-10-12T07:59:28.180Z,9.3
2022-10-12T08:00:32.508Z,9.4
2022-10-12T08:01:37.488Z,9.4
2022-10-12T08:02:41.788Z,9.4
2022-10-12T08:03:46.080Z,9.5
2022-10-12T08:04:50.394Z,9.7
2022-10-12T08:05:54.688Z,9.7
2022-10-12T08:06:59.147Z,9.8
2022-10-12T08:08:03.692Z,9.8
2022-10-12T08:09:11.256Z,9.9
2022-10-12T08:10:15.612Z,9.9
2022-10-12T08:11:19.868Z,9.8
2022-10-12T08:12:27.296Z,10
2022-10-12T08:13:32.344Z,10
2022-10-12T08:14:37.464Z,10
2022-10-12T08:15:43.073Z,10.1
2022-10-12T08:16:51.264Z,10.2
2022-10-12T08:17:55.540Z,10.1
2022-10-12T08:18:59.957Z,10.2
2022-10-12T08:20:04.420Z,10.2
2022-10-12T08:21:09.316Z,10.2
2022-10-12T08:22:14.540Z,10.3
2022-10-12T08:23:19.001Z,10.3
2022-10-12T08:24:23.336Z,10.3
2022-10-12T08:25:27.832Z,10.4
2022-10-12T08:26:32.173Z,10.4
2022-10-12T08:27:37.277Z,10.4
2022-10-12T08:28:41.675Z,10.3
2022-10-12T08:29:45.892Z,10.4
2022-10-12T08:30:50.385Z,10.5
2022-10-12T08:31:54.814Z,10.5
2022-10-12T08:32:59.173Z,10.5
2022-10-12T08:34:03.439Z,10.5
2022-10-12T08:35:07.999Z,10.3
2022-10-12T08:36:12.156Z,10.4
2022-10-12T08:37:16.448Z,10.4
2022-10-12T08:38:20.704Z,10.3
2022-10-12T08:39:25.672Z,10.4
2022-10-12T08:40:30.085Z,10.4
2022-10-12T08:41:34.727Z,10.5
2022-10-12T08:42:44.192Z,10.5
2022-10-12T08:43:51.545Z,10.4
2022-10-12T08:45:03.612Z,10.5
2022-10-12T08:46:13.238Z,10.5
2022-10-12T08:47:17.725Z,10.6
2022-10-12T08:48:27.032Z,10.6
2022-10-12T08:49:31.502Z,10.6
2022-10-12T08:50:35.753Z,10.3
2022-10-12T08:51:42.997Z,10.4
2022-10-12T08:52:53.189Z,10.6
2022-10-12T08:56:41.198Z,10.5
2022-10-12T08:57:47.636Z,10.6
2022-10-12T08:58:49.267Z,10.6
2022-10-12T08:59:53.333Z,10.6
2022-10-12T09:00:57.295Z,10.6
2022-10-12T09:15:22.997Z,11.1
2022-10-12T09:18:19.616Z,11.2
2022-10-12T09:19:31.905Z,11.2
2022-10-12T09:20:36.188Z,11.4
2022-10-12T09:21:43.300Z,11.2
2022-10-12T09:23:12.437Z,11.1
2022-10-12T09:25:46.425Z,11.6
2022-10-12T09:26:50.603Z,11.4
2022-10-12T09:27:54.707Z,11.6
2022-10-12T09:28:58.918Z,11.8
2022-10-12T09:30:02.901Z,11.8
2022-10-12T09:31:07.536Z,12.1
2022-10-12T09:32:16.828Z,12.2
2022-10-12T09:33:21.056Z,12.2
2022-10-12T09:34:28.270Z,12
2022-10-12T09:35:32.299Z,12.1
2022-10-12T09:36:36.444Z,12.2
2022-10-12T09:37:40.681Z,12.4
2022-10-12T09:38:44.757Z,12.6
2022-10-12T09:39:49.019Z,12.7
2022-10-12T09:40:53.456Z,12.7
2022-10-12T09:41:58.095Z,12.6
2022-10-12T09:43:02.153Z,12.8
2022-10-12T09:44:06.287Z,12.9
2022-10-12T09:45:18.843Z,12.7
2022-10-12T09:46:23.119Z,12.8
2022-10-12T09:47:35.324Z,13.1
2022-10-12T09:48:47.997Z,13.2
2022-10-12T09:49:56.744Z,13.3
2022-10-12T09:52:14.322Z,13.5
2022-10-12T09:53:18.521Z,13.7
2022-10-12T09:54:46.799Z,13.8
2022-10-12T09:55:54.008Z,13.9
2022-10-12T09:57:06.379Z,14
2022-10-12T09:58:10.380Z,13.9
2022-10-12T09:59:14.576Z,14
2022-10-12T10:00:23.883Z,14
2022-10-12T10:01:31.157Z,14.1
2022-10-12T10:02:59.830Z,14.2
2022-10-12T10:04:44.994Z,5.2
2022-10-12T10:05:49.202Z,14.3
2022-10-12T10:07:48.478Z,14.3
2022-10-12T10:08:53.042Z,14.4
2022-10-12T10:09:57.110Z,14.5
2022-10-12T10:11:09.566Z,14.7
2022-10-12T10:12:14.170Z,14.3
2022-10-12T10:13:26.982Z,14.1
2022-10-12T10:14:31.414Z,14.2
2022-10-12T10:15:35.990Z,14.1
2022-10-12T10:16:40.651Z,13.9
2022-10-12T10:17:47.602Z,13.8
2022-10-12T10:18:51.775Z,13.8
2022-10-12T10:19:56.146Z,14
2022-10-12T10:21:00.653Z,13.9
2022-10-12T10:22:05.075Z,13.8
2022-10-12T10:23:09.326Z,14
2022-10-12T10:24:18.898Z,14.3
2022-10-12T10:25:26.078Z,14.5
2022-10-12T10:26:30.552Z,14.3
2022-10-12T10:27:45.547Z,14.2
2022-10-12T10:28:50.480Z,14.6
2022-10-12T10:30:17.407Z,14.6
2022-10-12T10:31:16.116Z,14.4
2022-10-12T10:32:20.764Z,14.2
2022-10-12T10:33:25.129Z,14.5
2022-10-12T10:34:29.815Z,14.7
2022-10-12T10:35:34.363Z,14.5
2022-10-12T10:36:39.072Z,14.4
2022-10-12T10:37:48.744Z,14.6
2022-10-12T10:38:53.387Z,14.9
2022-10-12T10:40:00.477Z,14.9
2022-10-12T10:41:05.266Z,14.6
2022-10-12T10:42:09.826Z,14.5
2022-10-12T10:43:16.974Z,14.5
2022-10-12T10:44:26.438Z,14.8
2022-10-12T10:45:30.803Z,14.8
2022-10-12T10:46:45.762Z,14.6
2022-10-12T10:47:50.207Z,14.3
2022-10-12T10:48:54.793Z,14.2
2022-10-12T10:49:59.182Z,14.4
2022-10-12T10:51:03.785Z,14.6
2022-10-12T10:52:08.146Z,14.6
2022-10-12T10:53:21.117Z,14.9
2022-10-12T10:54:25.881Z,15
2022-10-12T10:55:30.171Z,15
2022-10-12T10:56:39.441Z,15
2022-10-12T10:57:43.658Z,14.9
2022-10-12T10:58:53.747Z,15
2022-10-12T11:00:09.441Z,14.8
2022-10-12T11:01:05.628Z,14.8
2022-10-12T11:02:16.333Z,14.7
2022-10-12T11:03:31.358Z,14.6
2022-10-12T11:04:35.516Z,14.6
2022-10-12T11:05:40.195Z,14.4
2022-10-12T11:06:44.829Z,14.4
2022-10-12T11:07:49.186Z,14.5
2022-10-12T11:08:53.922Z,14.3
2022-10-12T11:10:03.951Z,14.3
2022-10-12T11:11:11.257Z,14.5
2022-10-12T11:12:15.914Z,14.5
2022-10-12T11:13:20.622Z,14.6
2022-10-12T11:14:25.431Z,14.5
2022-10-12T11:15:29.845Z,14.5
2022-10-12T11:16:34.550Z,14.6
2022-10-12T11:17:47.118Z,14.6
2022-10-12T11:18:51.685Z,14.7
2022-10-12T11:19:58.714Z,14.5
2022-10-12T11:21:13.243Z,14.7
2022-10-12T11:22:22.707Z,14.6
2022-10-12T11:23:33.062Z,14.8
2022-10-12T11:24:47.884Z,14.8
2022-10-12T11:26:02.974Z,14.6
2022-10-12T11:27:13.028Z,14.4
2022-10-12T11:28:27.533Z,14.5
2022-10-12T11:29:32.082Z,14.4
2022-10-12T11:30:36.739Z,13.7
2022-10-12T11:31:41.426Z,13.9
2022-10-12T11:32:51.079Z,14
2022-10-12T11:33:55.771Z,14.2
2022-10-12T11:35:00.253Z,14.3
2022-10-12T11:36:05.303Z,14.3
2022-10-12T11:37:20.892Z,14.5
2022-10-12T11:38:19.858Z,14.6
2022-10-12T11:39:29.330Z,14.6
2022-10-12T11:41:09.629Z,14.6
2022-10-12T11:41:38.019Z,14.6
2022-10-12T11:42:45.142Z,14.7
2022-10-12T11:43:49.846Z,14.5
2022-10-12T11:44:57.487Z,14.5
2022-10-12T11:46:01.982Z,14.7
2022-10-12T11:47:06.466Z,14.8
2022-10-12T11:48:16.293Z,14.9
2022-10-12T11:49:23.815Z,15.1
2022-10-12T11:50:33.542Z,15.1
2022-10-12T11:51:41.246Z,14.9
2022-10-12T11:52:49.991Z,14.6
2022-10-12T11:53:55.082Z,14.7
2022-10-12T11:55:09.166Z,14.7
2022-10-12T11:56:23.754Z,14.8
2022-10-12T11:57:33.946Z,14.7
2022-10-12T11:58:56.280Z,14.9
2022-10-12T11:59:42.838Z,15.1
2022-10-12T12:00:55.093Z,14.9
2022-10-12T12:02:07.430Z,14.8
2022-10-12T12:03:17.220Z,14.7
2022-10-12T12:04:42.019Z,14.8
2022-10-12T12:05:28.815Z,14.8
2022-10-12T12:06:33.310Z,14.7
2022-10-12T12:07:40.858Z,14.6
2022-10-12T12:08:50.702Z,14.8
2022-10-12T12:10:02.961Z,14.9
2022-10-12T12:11:17.621Z,14.9
2022-10-12T12:12:24.762Z,14.6
2022-10-12T12:13:29.598Z,14.2
2022-10-12T12:14:34.474Z,14.3
2022-10-12T12:15:47.286Z,14.5
2022-10-12T12:16:52.185Z,14.7
2022-10-12T12:18:07.128Z,14.7
2022-10-12T12:19:19.464Z,14.6
2022-10-12T12:20:34.480Z,14.8
2022-10-12T12:21:43.969Z,14.7
2022-10-12T12:22:58.625Z,14.8
2022-10-12T12:24:03.529Z,14.9
2022-10-12T12:25:07.901Z,14.7
2022-10-12T12:26:16.431Z,14.9
2022-10-12T12:27:16.952Z,14.4
2022-10-12T12:28:21.492Z,14.4
2022-10-12T12:29:25.812Z,14.6
2022-10-12T12:30:30.532Z,14.8
2022-10-12T12:31:37.460Z,14.9
2022-10-12T12:32:41.904Z,14.4
2022-10-12T12:33:52.063Z,14.4
2022-10-12T12:35:01.883Z,14.6
2022-10-12T12:36:06.392Z,14.6
2022-10-12T12:37:10.845Z,14.8
2022-10-12T12:38:15.321Z,14.7
2022-10-12T12:39:20.058Z,14.7
2022-10-12T12:40:27.574Z,14.8
2022-10-12T12:41:32.173Z,14.9
2022-10-12T12:42:46.841Z,14.9
2022-10-12T12:43:51.444Z,14.9
2022-10-12T12:44:55.877Z,15.1
2022-10-12T12:46:00.525Z,15.1
2022-10-12T12:47:26.360Z,15.1
2022-10-12T12:48:12.289Z,15.2
2022-10-12T12:49:17.020Z,15.3
2022-10-12T12:50:24.098Z,15.3
2022-10-12T12:51:31.354Z,15.3
2022-10-12T12:52:38.706Z,15.3
2022-10-12T12:53:42.984Z,15.2
2022-10-12T12:54:52.285Z,15.2
2022-10-12T12:56:02.790Z,15.4
2022-10-12T12:57:12.561Z,15.4
2022-10-12T12:58:24.789Z,15.4
2022-10-12T12:59:39.697Z,15.4
2022-10-12T13:00:54.263Z,15.4
2022-10-12T13:02:09.069Z,15.2
2022-10-12T13:03:23.742Z,14.9
2022-10-12T13:04:38.409Z,15
2022-10-12T13:05:53.485Z,15.1
2022-10-12T13:07:07.974Z,15.1
2022-10-12T13:08:22.849Z,15
2022-10-12T13:09:27.572Z,15
2022-10-12T13:10:37.291Z,15.2
2022-10-12T13:11:49.283Z,15.2
2022-10-12T13:13:04.326Z,15.1
2022-10-12T13:14:16.655Z,15.3
2022-10-12T13:15:26.133Z,15.3
2022-10-12T13:17:42.990Z,15.3
2022-10-12T13:18:52.477Z,15.2
2022-10-12T13:19:56.923Z,15.3
2022-10-12T13:21:12.206Z,15.3
2022-10-12T13:22:17.178Z,15.4
2022-10-12T13:23:22.405Z,15.4
2022-10-12T13:24:27.005Z,15.3
2022-10-12T13:25:42.115Z,15.3
2022-10-12T13:26:54.678Z,15.4
2022-10-12T13:27:59.338Z,15.4
2022-10-12T13:29:03.957Z,15.4
2022-10-12T13:30:08.917Z,15.4
2022-10-12T13:31:16.033Z,15.4
2022-10-12T13:32:26.375Z,15.4
2022-10-12T13:33:35.870Z,15.5
2022-10-12T13:34:46.544Z,15.5
2022-10-12T13:35:50.790Z,15.4
2022-10-12T13:36:55.474Z,15.4
2022-10-12T13:38:00.425Z,15.4
2022-10-12T13:39:12.513Z,15.3
2022-10-12T13:40:17.337Z,15.3
2022-10-12T13:41:30.049Z,15.3
2022-10-12T13:42:34.835Z,15.1
2022-10-12T13:43:39.197Z,15
2022-10-12T13:44:46.717Z,15
2022-10-12T13:45:52.077Z,14.9
2022-10-12T13:46:57.098Z,15.1
2022-10-12T13:48:01.738Z,15.1
2022-10-12T13:49:06.533Z,15.2
2022-10-12T13:50:16.825Z,15.2
2022-10-12T13:51:21.675Z,15.2
2022-10-12T13:52:31.036Z,15.2
2022-10-12T13:53:30.954Z,15.3
2022-10-12T13:54:38.489Z,15.2
2022-10-12T13:55:45.551Z,15.2
2022-10-12T13:56:50.193Z,15.2
2022-10-12T13:58:00.362Z,15.1
2022-10-12T13:59:06.697Z,15.1
2022-10-12T14:00:12.813Z,15.2
2022-10-12T14:01:17.115Z,15.2
2022-10-12T14:02:21.450Z,15.2
2022-10-12T14:03:26.145Z,15.2
2022-10-12T14:04:38.662Z,15.1
2022-10-12T14:05:43.426Z,15.1
2022-10-12T14:06:48.069Z,14.9
2022-10-12T14:07:57.973Z,14.9
2022-10-12T14:09:07.622Z,14.9
2022-10-12T14:10:12.341Z,14.8
2022-10-12T14:11:19.853Z,14.6
2022-10-12T14:12:25.642Z,14.6
2022-10-12T14:13:29.073Z,14.6
2022-10-12T14:14:33.909Z,14.7
2022-10-12T14:15:38.509Z,14.7
2022-10-12T14:16:43.381Z,14.7
2022-10-12T14:17:48.101Z,14.7
2022-10-12T14:18:52.680Z,14.7
2022-10-12T14:19:57.194Z,14.5
2022-10-12T14:21:11.953Z,14.7
2022-10-12T14:22:16.547Z,14.8
2022-10-12T14:23:24.181Z,14.8
2022-10-12T14:24:29.034Z,14.8
2022-10-12T14:25:33.597Z,14.7
2022-10-12T14:26:38.166Z,14.7
2022-10-12T14:27:42.605Z,14.7
2022-10-12T14:28:47.331Z,14.8
2022-10-12T14:29:52.401Z,14.9
2022-10-12T14:30:57.179Z,14.9
2022-10-12T14:32:01.566Z,14.9
2022-10-12T14:33:08.480Z,14.9
2022-10-12T14:34:15.513Z,14.9
2022-10-12T14:35:22.754Z,14.8
2022-10-12T14:36:26.947Z,14.8
2022-10-12T14:37:31.891Z,14.8
2022-10-12T14:38:36.570Z,14.9
2022-10-12T14:39:42.565Z,14.9
2022-10-12T14:40:47.025Z,14.8
2022-10-12T14:41:51.622Z,14.8
2022-10-12T14:42:55.976Z,14.8
2022-10-12T14:44:05.285Z,14.8
2022-10-12T14:45:10.358Z,14.8
2022-10-12T14:46:18.053Z,14.7
2022-10-12T14:47:22.449Z,14.8
2022-10-12T14:48:30.090Z,14.7
2022-10-12T14:49:34.438Z,14.6
2022-10-12T14:50:41.885Z,14.6
2022-10-12T14:51:47.177Z,14.5
2022-10-12T14:52:51.848Z,14.5
2022-10-12T14:53:56.595Z,14.6
2022-10-12T14:55:03.904Z,14.6
2022-10-12T14:56:08.689Z,14.5
2022-10-12T14:57:13.496Z,14.5
2022-10-12T14:58:17.728Z,14.5
2022-10-12T14:59:22.226Z,14.5
2022-10-12T15:00:26.376Z,14.5
2022-10-12T15:01:31.263Z,14.5
2022-10-12T15:02:35.528Z,14.5
2022-10-12T15:03:40.354Z,14.4
2022-10-12T15:04:44.764Z,14.4
2022-10-12T15:05:49.452Z,14.4
2022-10-12T15:06:54.124Z,14.4
2022-10-12T15:07:58.439Z,14.3
2022-10-12T15:09:03.483Z,14.3
2022-10-12T15:10:07.575Z,14.3
2022-10-12T15:11:11.912Z,14.2
2022-10-12T15:12:16.573Z,14.2
2022-10-12T15:13:21.396Z,14.2
2022-10-12T15:14:25.824Z,14.1
2022-10-12T15:15:30.157Z,14.1
2022-10-12T15:16:37.348Z,14.1
2022-10-12T15:17:42.012Z,14.1
2022-10-12T15:18:47.892Z,14
2022-10-12T15:19:52.792Z,14
2022-10-12T15:20:57.634Z,13.9
2022-10-12T15:22:02.370Z,13.8
2022-10-12T15:23:06.919Z,13.8
2022-10-12T15:24:11.907Z,13.9
2022-10-12T15:25:16.195Z,13.8
2022-10-12T15:26:20.712Z,13.8
2022-10-12T15:27:25.476Z,13.7
2022-10-12T15:28:30.193Z,13.7
2022-10-12T15:29:35.040Z,13.7
2022-10-12T15:30:57.967Z,13.7
2022-10-12T15:31:46.650Z,13.7
2022-10-12T15:32:48.919Z,13.7
2022-10-12T15:33:53.431Z,13.6